Time;durP1;ratioP1;P1;durP2;ratioP2;P2;SDS_P1;SDS_P2;PMS_P1;PMS_P2;Temp;Humidity;BMP_temperature;BMP_pressure;BME280_temperature;BME280_humidity;BME280_pressure;Samples;Min_cycle;Max_cycle;Signal;HPM_P1;HPM_P2
2021/05/26 00:00:16;;;;;;;;;11.75;7.00;;;;;12.05;68.81;101221.41;5022114;28;51798;-58
2021/05/26 00:02:41;;;;;;;;;7.25;4.25;;;;;12.10;68.30;101218.09;5046947;28;51248;-59
2021/05/26 00:05:07;;;;;;;;;4.00;3.00;;;;;12.09;68.66;101217.19;5023447;28;51177;-58
2021/05/26 00:07:33;;;;;;;;;4.00;4.00;;;;;12.00;68.35;101209.88;5029618;28;51364;-58
2021/05/26 00:09:58;;;;;;;;;5.00;3.00;;;;;11.94;67.90;101207.88;5013680;28;51756;-60
2021/05/26 00:12:23;;;;;;;;;5.00;5.00;;;;;11.91;68.67;101205.16;5025008;28;50966;-59
2021/05/26 00:14:49;;;;;;;;;5.25;4.75;;;;;11.96;67.83;101197.53;5032566;28;51173;-59
2021/05/26 00:17:14;;;;;;;;;3.75;3.00;;;;;11.99;68.68;101195.06;5031475;28;51157;-59
2021/05/26 00:19:42;;;;;;;;;4.00;4.00;;;;;11.98;68.36;101192.41;5018758;28;52561;-59
2021/05/26 00:22:08;;;;;;;;;5.25;4.25;;;;;11.89;68.56;101178.16;5034028;28;51090;-59
2021/05/26 00:24:33;;;;;;;;;8.00;5.25;;;;;11.86;68.83;101175.47;5033520;28;51192;-59
2021/05/26 00:26:58;;;;;;;;;3.75;3.75;;;;;11.78;68.55;101176.84;5026189;28;51249;-59
2021/05/26 00:29:24;;;;;;;;;8.00;6.25;;;;;11.72;69.03;101169.63;5017522;28;51905;-59
2021/05/26 00:31:49;;;;;;;;;5.75;5.50;;;;;11.66;69.59;101167.66;5032512;28;50934;-59
2021/05/26 00:34:14;;;;;;;;;4.75;4.50;;;;;11.62;71.26;101155.31;5032464;28;51179;-59
2021/05/26 00:36:40;;;;;;;;;4.00;4.00;;;;;11.55;70.27;101155.91;5031439;28;51482;-58
2021/05/26 00:39:05;;;;;;;;;4.75;4.75;;;;;11.52;70.82;101155.75;5033291;28;52262;-59
2021/05/26 00:41:31;;;;;;;;;5.25;5.00;;;;;11.48;70.28;101144.34;5016708;28;51077;-59
2021/05/26 00:43:57;;;;;;;;;4.00;3.75;;;;;11.45;72.00;101141.59;5033473;28;51235;-59
2021/05/26 00:46:22;;;;;;;;;8.00;5.50;;;;;11.45;70.90;101135.53;5016896;28;51174;-59
2021/05/26 00:48:47;;;;;;;;;5.00;4.50;;;;;11.42;71.72;101136.28;5035769;28;52555;-58
2021/05/26 00:51:13;;;;;;;;;3.75;3.75;;;;;11.41;72.19;101124.06;5035522;28;50997;-59
2021/05/26 00:53:38;;;;;;;;;5.50;3.75;;;;;11.38;71.55;101119.63;5034948;28;51517;-58
2021/05/26 00:56:05;;;;;;;;;3.00;3.00;;;;;11.38;72.23;101117.03;5031270;28;51069;-59
2021/05/26 00:58:30;;;;;;;;;4.00;4.00;;;;;11.37;71.31;101102.25;5027396;28;51008;-58
2021/05/26 01:00:56;;;;;;;;;4.67;3.33;;;;;11.37;73.37;101099.66;5031403;28;51752;-59
2021/05/26 01:03:21;;;;;;;;;5.00;3.00;;;;;11.37;72.50;101104.84;5032302;28;51199;-59
2021/05/26 01:05:47;;;;;;;;;4.00;3.00;;;;;11.35;72.19;101096.09;5049641;28;51223;-61
2021/05/26 01:08:13;;;;;;;;;3.75;3.75;;;;;11.36;73.17;101099.56;5026129;28;54052;-59
2021/05/26 01:10:39;;;;;;;;;3.00;2.50;;;;;11.39;72.64;101089.31;5026741;28;50901;-59
2021/05/26 01:13:04;;;;;;;;;4.75;4.00;;;;;11.46;71.42;101096.56;5025651;28;51259;-58
2021/05/26 01:15:30;;;;;;;;;4.25;4.25;;;;;11.46;71.85;101080.06;5033876;28;51324;-58
2021/05/26 01:17:55;;;;;;;;;5.25;4.75;;;;;11.43;71.19;101079.09;5029608;28;51752;-59
2021/05/26 01:20:29;;;;;;;;;1.50;1.50;;;;;11.43;72.76;101073.03;5022923;28;51192;-59
2021/05/26 01:22:57;;;;;;;;;5.75;4.75;;;;;11.37;72.34;101073.66;5023828;28;51268;-59
2021/05/26 01:25:23;;;;;;;;;3.25;3.25;;;;;11.37;72.03;101075.34;5035948;28;51135;-59
2021/05/26 01:27:48;;;;;;;;;4.75;4.00;;;;;11.34;72.67;101070.91;5043992;28;51057;-59
2021/05/26 01:30:15;;;;;;;;;4.75;4.25;;;;;11.30;72.76;101066.41;5032577;28;50961;-59
2021/05/26 01:32:43;;;;;;;;;4.50;3.00;;;;;11.28;72.57;101047.25;5033008;28;51268;-57
2021/05/26 01:35:10;;;;;;;;;3.25;3.25;;;;;11.31;73.93;101051.69;5033954;28;51420;-58
2021/05/26 01:37:45;;;;;;;;;3.00;2.75;;;;;11.31;72.49;101047.38;5030719;28;50986;-59
2021/05/26 01:40:13;;;;;;;;;3.00;3.00;;;;;11.34;72.49;101041.44;5024896;28;51147;-59
2021/05/26 01:42:39;;;;;;;;;3.00;3.00;;;;;11.35;72.17;101046.69;5035052;28;51037;-59
2021/05/26 01:45:08;;;;;;;;;4.25;3.75;;;;;11.32;73.80;101037.84;5033692;28;52331;-58
2021/05/26 01:47:33;;;;;;;;;4.00;3.25;;;;;11.31;72.87;101033.50;5037147;28;51127;-59
2021/05/26 01:49:59;;;;;;;;;4.00;3.75;;;;;11.30;73.35;101035.22;5026187;28;51815;-58
2021/05/26 01:52:24;;;;;;;;;4.75;4.00;;;;;11.32;74.03;101027.47;5025210;28;51115;-58
2021/05/26 01:54:50;;;;;;;;;4.00;4.00;;;;;11.32;73.06;101028.34;5024734;28;51339;-58
2021/05/26 01:57:15;;;;;;;;;2.00;2.00;;;;;11.34;72.83;101018.91;5015349;28;51665;-58
2021/05/26 01:59:41;;;;;;;;;2.00;2.00;;;;;11.32;72.46;101020.56;5021184;28;51123;-58
2021/05/26 02:02:06;;;;;;;;;3.25;3.25;;;;;11.30;72.73;101019.63;5034864;28;51096;-57
2021/05/26 02:04:32;;;;;;;;;3.25;3.00;;;;;11.33;73.31;101011.94;5031240;28;51049;-59
2021/05/26 02:07:02;;;;;;;;;4.00;3.00;;;;;11.33;72.87;101004.13;5020550;28;51143;-58
2021/05/26 02:09:28;;;;;;;;;3.00;2.00;;;;;11.29;73.23;101002.22;5019789;28;51073;-59
2021/05/26 02:14:37;;;;;;;;;4.00;3.00;;;;;11.30;72.78;100998.81;5034735;28;51156;-58
2021/05/26 02:17:02;;;;;;;;;4.00;3.00;;;;;11.32;73.46;100991.97;5018489;28;51985;-59
2021/05/26 02:19:28;;;;;;;;;3.25;2.75;;;;;11.35;73.35;101001.59;5032327;28;51192;-59
2021/05/26 02:21:53;;;;;;;;;3.33;3.00;;;;;11.38;73.52;100986.13;5020746;28;50959;-59
2021/05/26 02:24:19;;;;;;;;;3.00;3.00;;;;;11.36;72.92;100993.88;5030438;28;51075;-60
2021/05/26 02:26:44;;;;;;;;;3.33;2.67;;;;;11.34;73.40;100990.28;5014318;28;51080;-60
2021/05/26 02:29:09;;;;;;;;;4.50;4.00;;;;;11.40;73.24;100984.47;5029410;28;53081;-59
2021/05/26 02:31:35;;;;;;;;;2.33;2.00;;;;;11.45;73.50;100985.56;5034416;28;51074;-60
2021/05/26 02:34:00;;;;;;;;;2.50;2.50;;;;;11.42;73.62;100970.72;5030337;28;51214;-59
2021/05/26 02:36:25;;;;;;;;;0.00;0.00;;;;;11.37;73.04;100968.72;5014160;28;51749;-59
2021/05/26 02:38:51;;;;;;;;;2.75;1.75;;;;;11.37;73.93;100969.63;5025829;28;51064;-59
2021/05/26 02:41:16;;;;;;;;;3.67;3.00;;;;;11.37;73.66;100971.34;5024624;28;51008;-59
2021/05/26 02:43:41;;;;;;;;;4.50;4.00;;;;;11.41;73.63;100971.53;5033815;28;51158;-57
2021/05/26 02:46:07;;;;;;;;;4.75;4.00;;;;;11.47;73.13;100973.50;5033785;28;51753;-60
2021/05/26 02:48:32;;;;;;;;;4.50;4.25;;;;;11.48;73.41;100962.28;5026997;28;51068;-58
2021/05/26 02:50:57;;;;;;;;;2.33;2.33;;;;;11.51;73.37;100965.03;5047586;28;51661;-59
2021/05/26 02:53:23;;;;;;;;;3.00;2.00;;;;;11.51;73.07;100959.81;5033871;28;51179;-59
2021/05/26 02:55:48;;;;;;;;;3.00;2.33;;;;;11.52;72.81;100952.88;5015412;28;51204;-59
2021/05/26 02:58:13;;;;;;;;;4.00;2.67;;;;;11.55;73.53;100947.81;5023874;28;51060;-59
2021/05/26 03:00:39;;;;;;;;;2.00;2.00;;;;;11.60;73.50;100969.69;5029105;28;51116;-59
2021/05/26 03:03:04;;;;;;;;;4.00;3.00;;;;;11.65;73.04;100955.16;5022401;28;51180;-59
2021/05/26 03:05:30;;;;;;;;;3.00;3.00;;;;;11.71;72.55;100956.22;5012562;28;53986;-59
2021/05/26 03:07:55;;;;;;;;;2.00;2.00;;;;;11.74;72.58;100951.16;5013926;28;50971;-59
2021/05/26 03:10:21;;;;;;;;;3.00;3.00;;;;;11.73;72.81;100952.84;5028109;28;51149;-59
2021/05/26 03:12:46;;;;;;;;;2.67;2.67;;;;;11.74;72.25;100957.22;5044248;28;51243;-57
2021/05/26 03:15:14;;;;;;;;;2.75;2.75;;;;;11.80;72.43;100948.78;5046321;28;51749;-59
2021/05/26 03:17:40;;;;;;;;;3.00;3.00;;;;;11.82;72.39;100957.56;5032228;28;51016;-59
2021/05/26 03:20:13;;;;;;;;;2.00;2.00;;;;;11.84;72.43;100952.38;5031421;28;52249;-58
2021/05/26 03:22:39;;;;;;;;;3.50;3.50;;;;;11.87;72.30;100943.00;5031091;28;51441;-59
2021/05/26 03:25:07;;;;;;;;;4.25;2.50;;;;;11.90;72.47;100953.53;5025717;28;51972;-58
2021/05/26 03:27:36;;;;;;;;;2.00;2.00;;;;;11.93;72.23;100952.75;5013414;28;51077;-58
2021/05/26 03:30:13;;;;;;;;;3.00;2.33;;;;;11.94;72.49;100941.53;5023285;28;50954;-58
2021/05/26 03:32:41;;;;;;;;;2.50;2.00;;;;;11.95;72.16;100949.41;5040206;28;51056;-58
2021/05/26 03:35:09;;;;;;;;;3.00;3.00;;;;;11.97;72.50;100940.75;5004947;28;51814;-58
2021/05/26 03:37:35;;;;;;;;;2.00;2.00;;;;;12.00;72.22;100933.06;5013147;28;50990;-58
2021/05/26 03:40:00;;;;;;;;;2.33;2.00;;;;;11.97;72.98;100935.56;5022858;28;51197;-58
2021/05/26 03:42:25;;;;;;;;;2.00;1.00;;;;;11.91;73.55;100941.41;5030437;28;51331;-58
2021/05/26 03:44:51;;;;;;;;;3.00;3.00;;;;;11.88;73.34;100925.66;5026138;28;50866;-58
2021/05/26 03:47:17;;;;;;;;;2.33;2.33;;;;;11.88;72.49;100928.25;5032948;28;50922;-58
2021/05/26 03:49:43;;;;;;;;;3.00;2.00;;;;;11.87;72.77;100924.78;5032190;28;50961;-59
2021/05/26 03:52:09;;;;;;;;;1.50;1.50;;;;;11.87;72.91;100921.28;5030331;28;51124;-59
2021/05/26 03:54:35;;;;;;;;;2.33;2.33;;;;;11.90;72.81;100929.22;5031372;28;52833;-58
2021/05/26 03:57:02;;;;;;;;;4.75;3.00;;;;;11.91;72.84;100921.50;5016076;28;51171;-58
2021/05/26 03:59:28;;;;;;;;;2.33;2.00;;;;;11.92;72.88;100923.25;5024460;28;51161;-59
2021/05/26 04:01:53;;;;;;;;;2.00;1.33;;;;;11.95;72.95;100936.41;5032843;28;51274;-59
2021/05/26 04:04:19;;;;;;;;;2.50;2.50;;;;;11.96;72.66;100924.25;5035657;28;52174;-59
2021/05/26 04:06:44;;;;;;;;;2.00;2.00;;;;;11.99;73.03;100920.88;5020659;28;51036;-61
2021/05/26 04:09:09;;;;;;;;;2.00;2.00;;;;;12.06;72.78;100931.59;5016305;28;51573;-58
2021/05/26 04:11:35;;;;;;;;;2.33;2.00;;;;;12.10;72.43;100935.25;5021462;28;50933;-59
2021/05/26 04:14:00;;;;;;;;;3.00;2.67;;;;;12.12;72.61;100936.16;5027701;28;52615;-58
2021/05/26 04:16:25;;;;;;;;;1.00;1.00;;;;;12.16;72.77;100931.97;5032953;28;51013;-59
2021/05/26 04:18:51;;;;;;;;;1.00;1.00;;;;;12.18;73.05;100928.59;5031501;28;50925;-59
2021/05/26 04:21:16;;;;;;;;;2.00;2.00;;;;;12.15;73.26;100931.09;5031686;28;51108;-59
2021/05/26 04:23:41;;;;;;;;;2.67;2.67;;;;;12.16;73.39;100927.66;5023755;28;51117;-58
2021/05/26 04:26:07;;;;;;;;;2.00;2.00;;;;;12.14;72.82;100929.31;5020563;28;51030;-59
2021/05/26 04:28:32;;;;;;;;;1.00;1.00;;;;;12.18;72.97;100918.16;5035835;28;51388;-58
2021/05/26 04:30:57;;;;;;;;;1.00;1.00;;;;;12.22;72.70;100927.00;5030199;28;51311;-59
2021/05/26 04:33:23;;;;;;;;;1.67;1.00;;;;;12.26;72.65;100933.19;5027088;28;51172;-58
2021/05/26 04:35:48;;;;;;;;;2.00;2.00;;;;;12.31;72.73;100936.88;5020625;28;50986;-59
2021/05/26 04:38:14;;;;;;;;;1.00;1.00;;;;;12.37;72.39;100933.59;5023808;28;51097;-58
2021/05/26 04:40:39;;;;;;;;;1.00;1.00;;;;;12.40;72.50;100926.78;5030375;28;51245;-59
2021/05/26 04:43:05;;;;;;;;;2.67;2.00;;;;;12.43;72.20;100929.50;5021374;28;51649;-59
2021/05/26 04:45:30;;;;;;;;;2.00;2.00;;;;;12.46;71.78;100927.00;5014633;28;51058;-59
2021/05/26 04:47:56;;;;;;;;;1.00;1.00;;;;;12.49;71.90;100936.69;5032368;28;51202;-58
2021/05/26 04:50:24;;;;;;;;;1.00;0.67;;;;;12.49;71.66;100931.47;5031388;28;51348;-58
2021/05/26 04:52:50;;;;;;;;;1.00;1.00;;;;;12.51;72.22;100931.50;5030747;28;51792;-59
2021/05/26 04:55:15;;;;;;;;;3.00;2.00;;;;;12.54;72.00;100935.13;5030429;28;50949;-57
2021/05/26 04:57:40;;;;;;;;;2.00;2.00;;;;;12.61;71.24;100933.63;5032305;28;51201;-58
2021/05/26 05:00:07;;;;;;;;;2.00;1.33;;;;;12.65;70.95;100932.88;5032453;28;51212;-58
2021/05/26 05:02:32;;;;;;;;;0.33;0.00;;;;;12.70;71.29;100931.34;5030864;28;52033;-58
2021/05/26 05:04:58;;;;;;;;;0.33;0.33;;;;;12.76;70.93;100937.59;5030402;28;51066;-58
2021/05/26 05:07:23;;;;;;;;;0.00;0.00;;;;;12.76;70.69;100941.09;5015870;28;51065;-58
2021/05/26 05:09:48;;;;;;;;;1.00;0.00;;;;;12.78;71.24;100955.06;5012283;28;51263;-58
2021/05/26 05:12:14;;;;;;;;;0.00;0.00;;;;;12.80;70.56;100948.19;5014210;28;52478;-59
2021/05/26 05:14:39;;;;;;;;;0.00;0.00;;;;;12.84;70.17;100943.94;5031167;28;51014;-58
2021/05/26 05:17:04;;;;;;;;;0.00;0.00;;;;;12.85;70.25;100956.19;5018796;28;51151;-59
2021/05/26 05:19:30;;;;;;;;;1.00;1.00;;;;;12.87;70.12;100954.50;5028703;28;52024;-58
2021/05/26 05:21:55;;;;;;;;;0.00;0.00;;;;;12.96;69.86;100969.59;5024827;28;51897;-58
2021/05/26 05:24:20;;;;;;;;;0.00;0.00;;;;;13.03;69.02;100961.13;5025823;28;52552;-58
2021/05/26 05:26:46;;;;;;;;;0.00;0.00;;;;;13.12;68.95;100976.19;5032750;28;51226;-58
2021/05/26 05:29:11;;;;;;;;;0.00;0.00;;;;;13.19;68.68;100988.63;5032602;28;53477;-58
2021/05/26 05:31:37;;;;;;;;;0.00;0.00;;;;;13.24;67.62;100992.28;5032552;28;52030;-62
2021/05/26 05:34:03;;;;;;;;;0.00;0.00;;;;;13.20;66.86;100998.22;5035838;28;51097;-57
2021/05/26 05:36:28;;;;;;;;;0.00;0.00;;;;;13.15;66.98;100999.78;5030006;28;51576;-58
2021/05/26 05:38:53;;;;;;;;;0.00;0.00;;;;;13.11;66.60;101000.50;5035162;28;51207;-59
2021/05/26 05:41:19;;;;;;;;;0.33;0.33;;;;;13.13;66.60;101009.28;5026703;28;51733;-58
2021/05/26 05:43:44;;;;;;;;;1.00;1.00;;;;;13.18;66.25;101009.44;5032433;28;51184;-58
2021/05/26 05:46:09;;;;;;;;;0.00;0.00;;;;;13.23;65.86;101016.59;5031298;28;51189;-58
2021/05/26 05:48:35;;;;;;;;;2.67;2.00;;;;;13.33;66.25;101011.69;5039606;28;51084;-58
2021/05/26 05:51:00;;;;;;;;;0.00;0.00;;;;;13.38;65.64;101017.94;5017084;28;51815;-58
2021/05/26 05:53:26;;;;;;;;;0.33;0.33;;;;;13.41;65.61;101031.09;5030131;28;51192;-57
2021/05/26 05:55:51;;;;;;;;;0.00;0.00;;;;;13.34;65.32;101026.50;5028231;28;51123;-58
2021/05/26 05:58:26;;;;;;;;;1.00;0.00;;;;;13.35;65.40;101025.66;5032356;28;51338;-58
2021/05/26 06:00:51;;;;;;;;;0.00;0.00;;;;;13.32;65.39;101028.19;5032266;28;52926;-59
2021/05/26 06:03:17;;;;;;;;;0.00;0.00;;;;;13.43;65.60;101044.22;5034395;28;51039;-59
2021/05/26 06:05:43;;;;;;;;;0.67;0.67;;;;;13.53;65.28;101048.94;5015438;28;51247;-58
2021/05/26 06:08:08;;;;;;;;;2.00;2.00;;;;;13.69;65.15;101046.81;5013877;28;51326;-58
2021/05/26 06:10:33;;;;;;;;;1.00;0.00;;;;;13.78;64.74;101052.34;4996617;28;53897;-60
2021/05/26 06:13:00;;;;;;;;;1.00;1.00;;;;;13.72;64.51;101058.25;5033518;28;51135;-58
2021/05/26 06:15:25;;;;;;;;;0.67;0.67;;;;;13.65;64.58;101053.69;5031299;28;51023;-58
2021/05/26 06:17:50;;;;;;;;;1.00;1.00;;;;;13.60;64.91;101052.63;5014775;28;51108;-59
2021/05/26 06:20:16;;;;;;;;;0.33;0.00;;;;;13.53;64.96;101056.75;5013502;28;51036;-59
2021/05/26 06:22:41;;;;;;;;;1.00;1.00;;;;;13.47;64.75;101066.94;5012903;28;50963;-57
2021/05/26 06:25:07;;;;;;;;;0.00;0.00;;;;;13.41;64.66;101078.06;5031949;28;51381;-59
2021/05/26 06:27:33;;;;;;;;;1.00;1.00;;;;;13.42;65.02;101084.16;5031739;28;51345;-59
2021/05/26 06:29:58;;;;;;;;;1.00;1.00;;;;;13.41;65.02;101085.88;5028115;28;51668;-62
2021/05/26 06:32:23;;;;;;;;;1.00;1.00;;;;;13.44;65.15;101080.75;5033795;28;51008;-58
2021/05/26 06:34:50;;;;;;;;;1.00;1.00;;;;;13.46;64.90;101086.94;5033587;28;50986;-59
2021/05/26 06:37:16;;;;;;;;;1.00;1.00;;;;;13.62;64.95;101104.03;5031670;28;50868;-58
2021/05/26 06:39:41;;;;;;;;;0.00;0.00;;;;;14.07;64.07;101098.53;5017069;28;51034;-58
2021/05/26 06:42:07;;;;;;;;;1.00;1.00;;;;;15.17;63.51;101086.19;5033909;28;50919;-59
2021/05/26 06:44:32;;;;;;;;;1.00;0.00;;;;;16.54;62.27;101093.94;5033955;28;51084;-59
2021/05/26 06:46:58;;;;;;;;;0.67;0.00;;;;;17.57;59.34;101098.63;5033258;28;51002;-59
2021/05/26 06:49:23;;;;;;;;;2.67;1.00;;;;;18.21;55.35;101102.34;5020403;28;51623;-58
2021/05/26 06:51:48;;;;;;;;;0.00;0.00;;;;;19.16;55.57;101106.25;5019808;28;51001;-59
2021/05/26 06:54:14;;;;;;;;;1.00;1.00;;;;;19.24;54.02;101115.13;5020587;28;51487;-59
2021/05/26 06:56:39;;;;;;;;;3.67;2.00;;;;;19.00;52.88;101113.06;5023622;28;51025;-57
2021/05/26 06:59:05;;;;;;;;;0.00;0.00;;;;;18.62;52.58;101123.09;5029253;28;51758;-58
2021/05/26 07:01:30;;;;;;;;;1.00;1.00;;;;;18.10;52.23;101123.19;5013479;28;51010;-58
2021/05/26 07:03:56;;;;;;;;;0.00;0.00;;;;;17.63;52.64;101138.13;5013761;28;51258;-59
2021/05/26 07:06:21;;;;;;;;;1.00;1.00;;;;;18.12;53.35;101137.25;5028904;28;51195;-58
2021/05/26 07:08:46;;;;;;;;;0.33;0.00;;;;;19.43;52.97;101133.78;5021034;28;51226;-59
2021/05/26 07:11:12;;;;;;;;;0.00;0.00;;;;;21.45;50.83;101138.63;5013065;28;51249;-59
2021/05/26 07:13:38;;;;;;;;;1.33;1.33;;;;;22.19;44.65;101126.41;5028413;28;51462;-57
2021/05/26 07:16:04;;;;;;;;;0.00;0.00;;;;;21.85;45.64;101137.84;5032286;28;51202;-59
2021/05/26 07:18:29;;;;;;;;;0.00;0.00;;;;;21.16;44.83;101136.81;5014727;28;53389;-58
2021/05/26 07:20:55;;;;;;;;;0.00;0.00;;;;;20.37;44.93;101137.25;5029021;28;50968;-59
2021/05/26 07:23:21;;;;;;;;;0.00;0.00;;;;;19.32;46.29;101153.81;5028784;28;51167;-57
2021/05/26 07:25:46;;;;;;;;;0.00;0.00;;;;;18.48;48.31;101161.47;5030158;28;51147;-59
2021/05/26 07:28:12;;;;;;;;;2.00;2.00;;;;;18.08;49.46;101152.06;5032231;28;52544;-58
2021/05/26 07:30:39;;;;;;;;;0.67;0.00;;;;;17.89;49.87;101158.75;5032367;28;51290;-58
2021/05/26 07:33:05;;;;;;;;;1.00;1.00;;;;;17.98;50.53;101169.41;5032502;28;51156;-60
2021/05/26 07:35:30;;;;;;;;;0.00;0.00;;;;;18.04;50.07;101159.84;5031723;28;51275;-59
2021/05/26 07:37:56;;;;;;;;;0.00;0.00;;;;;18.12;49.06;101163.53;5027732;28;53077;-59
2021/05/26 07:40:21;;;;;;;;;1.00;0.00;;;;;18.14;49.31;101192.44;5030947;28;50917;-60
2021/05/26 07:42:46;;;;;;;;;1.33;1.33;;;;;18.19;49.20;101180.31;5032622;28;50999;-59
2021/05/26 07:45:12;;;;;;;;;2.00;1.00;;;;;19.34;49.74;101181.06;5032776;28;51162;-60
2021/05/26 07:47:38;;;;;;;;;0.00;0.00;;;;;21.16;47.20;101174.63;5024410;28;51097;-59
2021/05/26 07:50:04;;;;;;;;;1.00;0.67;;;;;22.20;45.68;101179.25;5021740;28;51157;-59
2021/05/26 07:52:30;;;;;;;;;1.67;1.00;;;;;22.67;42.96;101180.13;5025882;28;51034;-59
2021/05/26 07:54:56;;;;;;;;;0.00;0.00;;;;;24.12;42.18;101181.22;5016943;28;51105;-60
2021/05/26 07:57:22;;;;;;;;;1.00;1.00;;;;;23.19;71.33;101185.28;5019276;28;52169;-60
2021/05/26 07:59:48;;;;;;;;;1.00;1.00;;;;;21.45;63.29;101197.63;5024874;28;51105;-62
2021/05/26 08:02:13;;;;;;;;;1.00;1.00;;;;;20.02;61.63;101186.19;5032688;28;51127;-60
2021/05/26 08:04:40;;;;;;;;;0.67;0.67;;;;;19.20;61.24;101199.31;5031129;28;51239;-61
2021/05/26 08:07:08;;;;;;;;;1.33;1.33;;;;;18.77;60.49;101203.09;5030611;28;51895;-60
2021/05/26 08:09:33;;;;;;;;;1.67;1.67;;;;;19.92;53.83;101201.88;5030607;28;51136;-60
2021/05/26 08:11:59;;;;;;;;;1.00;1.00;;;;;20.42;50.30;101206.72;5028331;28;51094;-60
2021/05/26 08:14:24;;;;;;;;;1.00;1.00;;;;;22.43;48.44;101197.78;5028591;28;51304;-60
2021/05/26 08:16:50;;;;;;;;;1.00;1.00;;;;;24.23;42.87;101189.97;4994543;28;53399;-61
2021/05/26 08:19:16;;;;;;;;;2.00;1.00;;;;;23.58;42.21;101188.63;5029064;28;51072;-61
2021/05/26 08:21:45;;;;;;;;;1.00;1.00;;;;;23.23;42.31;101197.63;5031876;28;50881;-59
2021/05/26 08:24:12;;;;;;;;;1.00;0.00;;;;;22.76;42.15;101207.47;5029812;28;50941;-61
2021/05/26 08:26:37;;;;;;;;;2.00;2.00;;;;;22.34;43.02;101208.38;5012212;28;52618;-61
2021/05/26 08:29:04;;;;;;;;;1.00;1.00;;;;;22.12;42.91;101208.34;5031025;28;51165;-60
2021/05/26 08:31:30;;;;;;;;;1.00;1.00;;;;;21.57;41.29;101207.38;5031629;28;51374;-60
2021/05/26 08:33:55;;;;;;;;;0.00;0.00;;;;;20.75;42.45;101217.50;5045041;28;51330;-60
2021/05/26 08:36:20;;;;;;;;;2.33;2.33;;;;;20.18;43.96;101218.84;5013495;28;53060;-60
2021/05/26 08:38:46;;;;;;;;;25.67;21.00;;;;;20.16;43.54;101215.28;5027903;28;51152;-61
2021/05/26 08:41:12;;;;;;;;;1.33;1.33;;;;;20.24;43.32;101216.25;5030905;28;50912;-61
2021/05/26 08:43:40;;;;;;;;;0.67;0.67;;;;;20.72;41.53;101223.66;5030675;28;51163;-61
2021/05/26 08:46:08;;;;;;;;;2.33;1.67;;;;;21.41;43.32;101210.84;5027792;28;52309;-61
2021/05/26 08:48:37;;;;;;;;;2.33;1.67;;;;;22.90;41.85;101221.56;5012553;28;51303;-60
2021/05/26 08:51:06;;;;;;;;;1.33;1.33;;;;;23.41;38.84;101222.28;5025286;28;50940;-60
2021/05/26 08:53:33;;;;;;;;;0.67;0.67;;;;;22.92;38.93;101219.78;5029948;28;51299;-61
2021/05/26 08:55:59;;;;;;;;;1.33;1.33;;;;;22.35;38.78;101218.06;5030523;28;51910;-61
2021/05/26 08:58:24;;;;;;;;;2.33;2.00;;;;;21.75;39.26;101216.25;5028280;28;51089;-61
2021/05/26 09:00:49;;;;;;;;;2.00;1.00;;;;;22.07;40.25;101218.06;5033168;28;51244;-60
2021/05/26 09:03:15;;;;;;;;;3.00;2.67;;;;;22.48;38.93;101212.78;5034796;28;51406;-62
2021/05/26 09:05:42;;;;;;;;;2.33;2.33;;;;;22.40;39.26;101211.00;5028612;28;51624;-60
2021/05/26 09:08:17;;;;;;;;;1.33;1.33;;;;;22.16;38.89;101212.78;5030899;28;51077;-61
2021/05/26 09:10:50;;;;;;;;;1.33;1.33;;;;;21.60;38.98;101220.56;5020078;28;51017;-60
2021/05/26 09:13:25;;;;;;;;;3.00;2.67;;;;;20.90;39.60;101224.69;5033717;28;50937;-60
2021/05/26 09:15:51;;;;;;;;;3.00;3.00;;;;;20.40;40.36;101224.28;5034571;28;51085;-61
2021/05/26 09:18:16;;;;;;;;;2.67;2.67;;;;;20.31;40.66;101226.00;5031559;28;50947;-59
2021/05/26 09:20:45;;;;;;;;;4.33;3.67;;;;;20.18;39.85;101229.41;5013623;28;51121;-61
2021/05/26 09:23:19;;;;;;;;;2.00;2.00;;;;;20.62;40.25;101227.09;5012984;28;50956;-61
2021/05/26 09:25:44;;;;;;;;;3.00;2.67;;;;;24.52;39.12;101218.00;5033965;28;51178;-61
2021/05/26 09:28:28;;;;;;;;;3.33;3.00;;;;;28.11;35.49;101220.09;5039567;28;51003;-61
2021/05/26 09:31:09;;;;;;;;;4.00;3.00;;;;;28.31;32.70;101221.41;5036987;28;51169;-61
2021/05/26 09:33:47;;;;;;;;;2.33;2.33;;;;;27.15;31.47;101224.88;5014587;28;51665;-61
2021/05/26 09:36:31;;;;;;;;;5.00;5.00;;;;;26.07;32.36;101227.63;5031582;28;51750;-61
2021/05/26 09:38:57;;;;;;;;;5.67;5.00;;;;;25.55;31.77;101222.22;5017708;28;50880;-60
2021/05/26 09:41:28;;;;;;;;;4.00;3.00;;;;;25.86;32.60;101225.31;5032157;28;51113;-60
2021/05/26 09:44:10;;;;;;;;;3.67;3.67;;;;;26.67;32.69;101229.34;5030945;28;51340;-61
2021/05/26 09:46:40;;;;;;;;;3.33;3.33;;;;;27.03;31.71;101240.19;5031081;28;51260;-61
2021/05/26 09:49:16;;;;;;;;;3.00;2.00;;;;;26.46;31.66;101234.13;5015117;28;50943;-61
2021/05/26 09:51:57;;;;;;;;;4.00;4.00;;;;;25.53;30.72;101247.88;5014310;28;51087;-60
2021/05/26 09:54:27;;;;;;;;;3.00;3.00;;;;;24.88;32.36;101238.03;5023788;28;51144;-60
2021/05/26 09:57:03;;;;;;;;;3.00;3.00;;;;;24.98;32.22;101245.03;5034072;28;52842;-62
2021/05/26 09:59:31;;;;;;;;;7.00;4.00;;;;;26.34;31.76;101252.09;5032854;28;51132;-60
2021/05/26 10:01:58;;;;;;;;;3.00;3.00;;;;;27.95;30.70;101245.38;5034143;28;51143;-60
2021/05/26 10:04:23;;;;;;;;;3.67;3.67;;;;;30.84;29.44;101244.13;5033252;28;51200;-61
2021/05/26 10:06:51;;;;;;;;;4.67;4.00;;;;;32.16;27.26;101248.03;5021051;28;50977;-60
2021/05/26 10:09:21;;;;;;;;;4.00;4.00;;;;;33.28;25.70;101243.16;5014314;28;50962;-61
2021/05/26 10:11:50;;;;;;;;;3.33;3.00;;;;;33.58;23.92;101249.88;5013220;28;51071;-61
2021/05/26 10:14:16;;;;;;;;;6.00;4.00;;;;;33.02;24.51;101252.44;5021493;28;51215;-60
2021/05/26 10:16:43;;;;;;;;;4.67;4.00;;;;;32.51;24.22;101252.84;5028982;28;51126;-61
2021/05/26 10:19:14;;;;;;;;;5.00;5.00;;;;;32.07;24.49;101249.28;4996211;28;51253;-61
2021/05/26 10:21:40;;;;;;;;;5.33;4.00;;;;;31.85;24.21;101250.13;5013235;28;51100;-61
2021/05/26 10:24:07;;;;;;;;;5.00;5.00;;;;;31.54;24.15;101246.88;5020236;28;52540;-60
2021/05/26 10:26:53;;;;;;;;;4.00;3.67;;;;;31.00;23.05;101251.59;5014812;28;51862;-61
2021/05/26 10:29:30;;;;;;;;;6.67;6.33;;;;;29.40;23.67;101255.00;5023259;28;50944;-61
2021/05/26 10:32:23;;;;;;;;;4.33;4.00;;;;;27.77;24.72;101263.56;5033795;28;51122;-61
2021/05/26 10:34:51;;;;;;;;;3.67;3.67;;;;;26.91;26.30;101267.06;5029790;28;51252;-61
2021/05/26 10:37:29;;;;;;;;;6.00;6.00;;;;;29.95;27.60;101263.13;5033217;28;51944;-61
2021/05/26 10:39:55;;;;;;;;;6.00;6.00;;;;;34.14;24.99;101260.66;5033211;28;50893;-61
2021/05/26 10:42:38;;;;;;;;;0.67;0.67;;;;;35.79;20.39;101261.84;5033475;28;50962;-61
2021/05/26 10:45:06;;;;;;;;;5.33;5.00;;;;;35.63;20.75;101262.72;5032852;28;51145;-60
2021/05/26 10:47:38;;;;;;;;;5.00;5.00;;;;;35.60;20.80;101265.56;5013359;28;52332;-61
2021/05/26 10:50:26;;;;;;;;;4.00;4.00;;;;;35.89;20.53;101271.16;5012947;28;51077;-61
2021/05/26 10:52:54;;;;;;;;;6.67;6.67;;;;;35.76;19.67;101268.28;5023005;28;51176;-63
2021/05/26 10:55:46;;;;;;;;;7.00;7.00;;;;;35.55;19.63;101268.50;5028904;28;51296;-61
2021/05/26 10:58:41;;;;;;;;;4.33;4.33;;;;;35.47;19.41;101270.81;5025077;28;50943;-61
2021/05/26 11:01:08;;;;;;;;;4.00;4.00;;;;;34.81;19.31;101266.22;4990446;28;51055;-61
2021/05/26 11:03:36;;;;;;;;;6.67;6.67;;;;;33.70;20.32;101265.44;5032256;28;51223;-61
2021/05/26 11:06:25;;;;;;;;;4.67;4.67;;;;;34.00;19.70;101255.94;5032517;28;51007;-60
2021/05/26 11:08:52;;;;;;;;;7.00;7.00;;;;;34.39;20.13;101267.47;5014667;28;51144;-61
2021/05/26 11:11:34;;;;;;;;;64.00;54.00;;;;;35.16;19.21;101265.28;5012619;28;50936;-60
2021/05/26 11:14:06;;;;;;;;;6.00;6.00;;;;;34.68;18.77;101263.28;5030847;28;51116;-61
2021/05/26 11:17:00;;;;;;;;;6.67;6.00;;;;;33.81;19.67;101261.34;5021552;28;50997;-60
2021/05/26 11:19:28;;;;;;;;;3.67;3.67;;;;;32.66;19.09;101257.56;5031888;28;51846;-62
2021/05/26 11:21:57;;;;;;;;;5.00;5.00;;;;;31.71;20.87;101258.78;5026533;28;51231;-61
2021/05/26 11:24:25;;;;;;;;;6.00;6.00;;;;;31.23;20.81;101258.75;5016395;28;51345;-60
2021/05/26 11:26:50;;;;;;;;;7.00;6.67;;;;;30.46;21.00;101257.00;5012535;28;51158;-60